Caceres, Spain
Current Conditions -  °F | °C
As of 7:00 PM on Thursday 29 Jan 2015 (Local Time) from LEBZ Reporting Station
Overcast Overcast  
Wind Chill: 14°   Ceiling: 2000
Heat Index: 14°   Visibility: 6mi
Dew Point: 11°   Wind: 17mph
Humidity: 82%   Direction: 260°W
Pressure: 30.03"   Gusts: NA
Location:  39.48°N, 6.37°W
Report Text: LEBZ 291800Z 26015KT 230V290 9999 OVC020 14/11 Q1017
Loading
Personal Weather Stations






























Interactive Weather Map New forecast layout! Learn more

10-Day Weather Forecast

Advertisements
Track Severe Weather on mobile